Time;durP1;ratioP1;P1;durP2;ratioP2;P2;SDS_P1;SDS_P2;PMS_P1;PMS_P2;Temp;Humidity;BMP_temperature;BMP_pressure;BME280_temperature;BME280_humidity;BME280_pressure;Samples;Min_cycle;Max_cycle;Signal;HPM_P1;HPM_P2
2021/01/09 00:00:06;;;;;;;13.80;9.00;;;5.10;66.00;;;;;;5014877;28;20367;-59
2021/01/09 00:02:31;;;;;;;11.85;8.32;;;5.10;65.90;;;;;;5015028;28;20026;-60
2021/01/09 00:04:57;;;;;;;13.82;8.77;;;5.00;65.70;;;;;;5012435;28;20092;-59
2021/01/09 00:07:23;;;;;;;12.38;8.48;;;4.90;65.80;;;;;;5015177;28;20018;-59
2021/01/09 00:09:48;;;;;;;13.43;8.48;;;4.90;66.00;;;;;;5012027;28;20018;-59
2021/01/09 00:12:14;;;;;;;13.82;9.02;;;4.80;66.10;;;;;;5012578;28;20478;-58
2021/01/09 00:14:40;;;;;;;12.75;8.68;;;4.80;66.40;;;;;;5009452;28;20116;-60
2021/01/09 00:17:06;;;;;;;12.68;8.85;;;4.70;66.40;;;;;;5015402;28;20017;-59
2021/01/09 00:19:32;;;;;;;12.50;8.52;;;4.70;66.40;;;;;;5014662;28;20068;-58
2021/01/09 00:21:59;;;;;;;12.18;8.05;;;4.70;66.50;;;;;;5010484;28;20080;-59
2021/01/09 00:24:24;;;;;;;11.82;8.35;;;4.70;66.50;;;;;;5008128;28;20458;-59
2021/01/09 00:26:50;;;;;;;11.27;8.20;;;4.70;66.40;;;;;;5009901;28;20037;-59
2021/01/09 00:29:16;;;;;;;14.40;9.50;;;4.60;66.40;;;;;;5004222;28;20042;-58
2021/01/09 00:31:41;;;;;;;12.32;8.27;;;4.60;66.60;;;;;;5015120;28;20489;-60
2021/01/09 00:34:07;;;;;;;11.50;8.70;;;4.60;66.80;;;;;;5012791;28;20069;-57
2021/01/09 00:36:33;;;;;;;13.70;8.90;;;4.70;66.60;;;;;;5014535;28;20041;-59
2021/01/09 00:38:59;;;;;;;12.50;8.52;;;4.60;66.60;;;;;;5004471;28;20021;-59
2021/01/09 00:41:32;;;;;;;14.25;9.88;;;4.60;66.50;;;;;;5015603;28;20021;-59
2021/01/09 00:43:58;;;;;;;14.63;10.32;;;4.60;66.50;;;;;;5004920;28;20127;-59
2021/01/09 00:46:25;;;;;;;14.90;9.60;;;4.60;66.70;;;;;;5014524;28;20485;-58
2021/01/09 00:48:51;;;;;;;14.38;8.98;;;4.60;66.90;;;;;;5014049;28;20073;-56
2021/01/09 00:51:17;;;;;;;13.00;8.55;;;4.60;66.80;;;;;;5015017;28;20084;-58
2021/01/09 00:53:44;;;;;;;14.57;10.07;;;4.60;66.60;;;;;;5013562;28;20030;-58
2021/01/09 00:56:14;;;;;;;13.43;8.90;;;4.70;66.50;;;;;;5013056;28;20481;-58
2021/01/09 00:58:40;;;;;;;12.18;9.05;;;4.60;66.60;;;;;;5014797;28;20026;-57
2021/01/09 01:01:06;;;;;;;14.02;9.05;;;4.60;66.60;;;;;;5012001;28;20040;-58
2021/01/09 01:03:31;;;;;;;13.50;8.93;;;4.60;66.60;;;;;;5014946;28;20034;-59
2021/01/09 01:05:57;;;;;;;14.40;9.25;;;4.60;66.30;;;;;;5014545;28;20433;-60
2021/01/09 01:08:23;;;;;;;13.77;9.82;;;4.60;66.20;;;;;;5011267;28;20030;-60
2021/01/09 01:10:48;;;;;;;14.43;9.57;;;4.50;66.20;;;;;;5012741;28;20108;-58
2021/01/09 01:13:15;;;;;;;14.93;9.43;;;4.50;66.60;;;;;;5009837;28;20030;-59
2021/01/09 01:15:42;;;;;;;14.00;8.90;;;4.50;66.80;;;;;;5013437;28;20034;-58
2021/01/09 01:18:07;;;;;;;13.82;9.32;;;4.50;66.80;;;;;;5014329;28;20030;-58
2021/01/09 01:20:33;;;;;;;12.88;8.80;;;4.60;66.70;;;;;;5010268;28;20034;-58
2021/01/09 01:22:59;;;;;;;13.95;8.75;;;4.60;66.60;;;;;;5017186;28;20104;-59
2021/01/09 01:25:25;;;;;;;13.65;8.88;;;4.60;66.70;;;;;;5014499;28;20034;-58
2021/01/09 01:27:51;;;;;;;15.07;9.65;;;4.70;66.60;;;;;;5018459;28;20049;-58
2021/01/09 01:30:17;;;;;;;13.68;8.98;;;4.70;66.60;;;;;;5017793;28;20057;-59
2021/01/09 01:32:43;;;;;;;16.73;10.30;;;4.70;66.60;;;;;;5016387;28;20117;-58
2021/01/09 01:35:09;;;;;;;14.75;9.30;;;4.80;66.60;;;;;;5014671;28;20117;-59
2021/01/09 01:37:34;;;;;;;14.45;8.95;;;4.80;66.40;;;;;;5018045;28;20029;-59
2021/01/09 01:40:00;;;;;;;15.77;10.13;;;4.80;66.30;;;;;;5013996;28;20045;-59
2021/01/09 01:42:28;;;;;;;13.98;8.55;;;4.80;66.40;;;;;;5011179;28;20022;-59
2021/01/09 01:44:55;;;;;;;11.98;8.30;;;4.80;66.40;;;;;;5016427;28;20362;-59
2021/01/09 01:47:22;;;;;;;14.93;9.00;;;4.80;66.30;;;;;;5017642;28;20048;-60
2021/01/09 01:49:49;;;;;;;12.85;8.85;;;4.80;66.10;;;;;;5014507;28;20233;-60
2021/01/09 01:52:16;;;;;;;15.18;10.52;;;4.80;65.90;;;;;;5015449;28;20026;-58
2021/01/09 01:54:45;;;;;;;14.90;9.95;;;4.80;65.90;;;;;;5017855;28;20105;-59
2021/01/09 01:57:12;;;;;;;17.60;11.50;;;4.80;66.00;;;;;;5017977;28;20018;-57
2021/01/09 01:59:41;;;;;;;14.85;9.88;;;4.80;66.10;;;;;;5017353;28;20091;-59
2021/01/09 02:02:09;;;;;;;14.68;9.88;;;4.80;66.10;;;;;;5018508;28;20033;-59
2021/01/09 02:04:35;;;;;;;16.30;10.38;;;4.80;66.30;;;;;;5014011;28;20161;-58
2021/01/09 02:07:06;;;;;;;13.15;9.27;;;4.80;66.20;;;;;;5016120;28;20116;-59
2021/01/09 02:09:37;;;;;;;13.32;9.15;;;4.80;66.20;;;;;;5016890;28;20040;-58
2021/01/09 02:12:28;;;;;;;15.77;9.85;;;4.80;65.90;;;;;;5012909;28;20135;-58
2021/01/09 02:14:58;;;;;;;14.02;9.70;;;4.70;65.90;;;;;;5016020;28;20080;-59
2021/01/09 02:17:25;;;;;;;12.65;8.93;;;4.70;66.20;;;;;;5014443;28;20030;-59
2021/01/09 02:19:51;;;;;;;15.20;10.90;;;4.70;66.30;;;;;;5018117;28;20105;-57
2021/01/09 02:22:18;;;;;;;14.57;9.82;;;4.70;66.20;;;;;;5017708;28;20439;-58
2021/01/09 02:24:45;;;;;;;14.40;9.57;;;4.60;66.20;;;;;;5012699;28;20018;-58
2021/01/09 02:27:12;;;;;;;12.82;9.20;;;4.60;66.30;;;;;;5017214;28;20022;-60
2021/01/09 02:30:07;;;;;;;13.95;9.15;;;4.50;66.40;;;;;;5017450;28;20355;-59
2021/01/09 02:32:52;;;;;;;15.68;10.20;;;4.50;66.30;;;;;;5003616;28;20038;-57
2021/01/09 02:35:21;;;;;;;14.00;9.57;;;4.40;66.80;;;;;;5016795;28;20030;-60
2021/01/09 02:37:47;;;;;;;15.45;10.80;;;4.40;67.20;;;;;;5015866;28;20033;-58
2021/01/09 02:40:18;;;;;;;15.70;10.18;;;4.50;67.50;;;;;;5014390;28;20041;-58
2021/01/09 02:42:44;;;;;;;14.25;9.63;;;4.60;67.50;;;;;;5007759;28;20022;-58
2021/01/09 02:45:10;;;;;;;13.65;9.00;;;4.60;67.20;;;;;;5016391;28;20034;-58
2021/01/09 02:47:36;;;;;;;16.20;10.00;;;4.60;67.10;;;;;;5016956;28;20076;-58
2021/01/09 02:50:03;;;;;;;15.02;9.27;;;4.70;67.30;;;;;;5007960;28;20058;-59
2021/01/09 02:52:29;;;;;;;18.52;11.70;;;4.70;67.20;;;;;;5013283;28;20084;-58
2021/01/09 02:54:55;;;;;;;15.43;9.50;;;4.70;67.10;;;;;;5015409;28;20470;-59
2021/01/09 02:57:20;;;;;;;14.00;10.27;;;4.70;67.20;;;;;;5016754;28;20068;-59
2021/01/09 02:59:46;;;;;;;13.70;9.60;;;4.70;66.90;;;;;;5011287;28;20034;-59
2021/01/09 03:02:12;;;;;;;15.73;10.02;;;4.70;66.80;;;;;;5015024;28;20113;-57
2021/01/09 03:04:38;;;;;;;15.30;10.50;;;4.70;67.00;;;;;;5016218;28;20080;-58
2021/01/09 03:07:03;;;;;;;17.08;11.93;;;4.60;67.00;;;;;;5011656;28;20026;-58
2021/01/09 03:09:30;;;;;;;16.95;10.93;;;4.60;67.30;;;;;;5012841;28;20037;-59
2021/01/09 03:11:56;;;;;;;17.35;12.45;;;4.60;67.30;;;;;;5015744;28;20050;-57
2021/01/09 03:14:21;;;;;;;16.80;12.32;;;4.60;67.30;;;;;;5011281;28;20065;-58
2021/01/09 03:16:47;;;;;;;17.67;12.10;;;4.60;67.40;;;;;;5016026;28;20478;-59
2021/01/09 03:19:13;;;;;;;19.33;12.02;;;4.70;67.50;;;;;;5016478;28;20061;-59
2021/01/09 03:21:39;;;;;;;17.48;11.13;;;4.70;67.40;;;;;;5013255;28;20394;-58
2021/01/09 03:24:05;;;;;;;16.42;10.75;;;4.70;67.40;;;;;;5012184;28;20026;-58
2021/01/09 03:26:30;;;;;;;18.38;11.88;;;4.70;67.50;;;;;;5014368;28;20424;-57
2021/01/09 03:28:56;;;;;;;15.98;11.77;;;4.80;67.80;;;;;;5016037;28;20106;-58
2021/01/09 03:31:24;;;;;;;15.00;10.82;;;4.80;67.80;;;;;;5012070;28;20045;-58
2021/01/09 03:33:50;;;;;;;17.20;11.07;;;4.80;67.70;;;;;;5015577;28;20022;-57
2021/01/09 03:36:15;;;;;;;15.98;11.00;;;4.80;67.50;;;;;;5015598;28;20032;-59
2021/01/09 03:38:41;;;;;;;15.73;10.52;;;4.90;67.60;;;;;;5016182;28;20537;-58
2021/01/09 03:41:07;;;;;;;17.77;11.27;;;4.90;67.50;;;;;;5015126;28;20053;-58
2021/01/09 03:43:32;;;;;;;15.38;11.07;;;4.90;67.50;;;;;;5013327;28;20030;-59
2021/01/09 03:45:58;;;;;;;16.95;11.80;;;5.00;67.30;;;;;;5015486;28;20026;-58
2021/01/09 03:48:24;;;;;;;17.40;12.38;;;4.90;67.50;;;;;;5012547;28;20506;-59
2021/01/09 03:50:50;;;;;;;16.20;11.45;;;4.90;67.40;;;;;;5014756;28;20508;-59
2021/01/09 03:53:16;;;;;;;16.90;12.05;;;4.90;67.30;;;;;;5015899;28;20026;-58
2021/01/09 03:55:42;;;;;;;16.08;11.25;;;5.00;67.40;;;;;;5015748;28;20582;-58
2021/01/09 03:58:07;;;;;;;14.95;10.35;;;5.00;67.50;;;;;;5015942;28;20088;-57
2021/01/09 04:00:33;;;;;;;14.82;9.90;;;5.00;67.50;;;;;;5003484;28;20486;-59
2021/01/09 04:02:59;;;;;;;15.98;10.52;;;5.00;67.50;;;;;;5014698;28;20096;-58
2021/01/09 04:05:24;;;;;;;19.13;12.57;;;5.00;67.20;;;;;;5013454;28;20034;-58
2021/01/09 04:07:50;;;;;;;17.33;11.50;;;5.00;67.40;;;;;;5014568;28;20057;-59
2021/01/09 04:10:16;;;;;;;19.60;12.93;;;5.00;67.50;;;;;;5010723;28;20029;-59
2021/01/09 04:12:42;;;;;;;16.33;11.10;;;5.00;67.70;;;;;;5015863;28;20470;-59
2021/01/09 04:15:08;;;;;;;15.18;10.70;;;5.00;67.60;;;;;;5012900;28;20053;-59
2021/01/09 04:17:33;;;;;;;15.68;11.68;;;5.00;68.10;;;;;;5013784;28;20026;-59
2021/01/09 04:19:59;;;;;;;15.80;10.95;;;5.00;67.30;;;;;;5015397;28;20021;-58
2021/01/09 04:22:25;;;;;;;17.92;11.27;;;5.00;67.30;;;;;;5013635;28;20025;-60
2021/01/09 04:24:51;;;;;;;16.35;11.32;;;5.00;67.50;;;;;;5014439;28;20026;-58
2021/01/09 04:27:17;;;;;;;19.05;12.07;;;4.90;67.30;;;;;;5010675;28;20038;-57
2021/01/09 04:29:42;;;;;;;17.98;11.73;;;4.90;67.50;;;;;;5015321;28;20531;-58
2021/01/09 04:32:08;;;;;;;18.13;12.00;;;4.90;67.80;;;;;;5015186;28;20022;-57
2021/01/09 04:34:34;;;;;;;16.83;10.75;;;4.90;67.60;;;;;;5011364;28;20061;-57
2021/01/09 04:37:00;;;;;;;18.35;12.82;;;4.90;67.80;;;;;;5014938;28;20052;-58
2021/01/09 04:39:25;;;;;;;18.55;13.38;;;4.90;67.50;;;;;;5002404;28;20544;-59
2021/01/09 04:41:51;;;;;;;17.83;11.93;;;4.90;67.70;;;;;;5012087;28;20026;-58
2021/01/09 04:44:17;;;;;;;18.80;12.10;;;4.90;67.90;;;;;;5013652;28;20173;-59
2021/01/09 04:46:54;;;;;;;21.25;13.00;;;4.90;68.00;;;;;;5005228;28;20034;-58
2021/01/09 04:49:21;;;;;;;17.20;11.07;;;4.90;67.90;;;;;;5014956;28;20030;-59
2021/01/09 04:51:48;;;;;;;18.25;11.55;;;4.90;67.90;;;;;;5014332;28;20501;-59
2021/01/09 04:54:18;;;;;;;19.58;12.82;;;4.90;67.80;;;;;;5010154;28;20462;-59
2021/01/09 04:56:46;;;;;;;16.73;11.88;;;4.90;67.90;;;;;;5012535;28;20033;-57
2021/01/09 04:59:13;;;;;;;16.50;10.65;;;4.90;67.80;;;;;;5014612;28;20018;-60
2021/01/09 05:01:42;;;;;;;18.42;11.70;;;4.90;67.90;;;;;;5013409;28;20102;-60
2021/01/09 05:04:09;;;;;;;16.20;10.95;;;4.90;67.60;;;;;;5011294;28;20022;-58
2021/01/09 05:06:36;;;;;;;17.10;11.27;;;4.90;67.40;;;;;;5015465;28;20107;-59
2021/01/09 05:09:02;;;;;;;15.30;11.07;;;4.90;67.40;;;;;;5014898;28;20108;-56
2021/01/09 05:11:31;;;;;;;17.80;12.05;;;4.80;67.60;;;;;;5011901;28;20429;-58
2021/01/09 05:13:58;;;;;;;18.67;11.55;;;4.80;67.50;;;;;;5012159;28;20109;-57
2021/01/09 05:16:25;;;;;;;16.38;10.95;;;4.70;67.70;;;;;;5014074;28;20037;-58
2021/01/09 05:18:51;;;;;;;19.35;11.90;;;4.70;67.80;;;;;;5014688;28;20041;-59
2021/01/09 05:21:17;;;;;;;21.15;13.75;;;4.70;68.00;;;;;;5012244;28;20038;-58
2021/01/09 05:24:03;;;;;;;20.10;13.30;;;4.70;68.30;;;;;;5013809;28;20022;-58
2021/01/09 05:26:30;;;;;;;18.67;12.18;;;4.70;68.30;;;;;;5015236;28;20453;-59
2021/01/09 05:28:58;;;;;;;16.58;12.48;;;4.70;68.40;;;;;;5014376;28;20068;-59
2021/01/09 05:31:25;;;;;;;20.05;12.75;;;4.70;68.30;;;;;;5008896;28;20474;-59
2021/01/09 05:33:52;;;;;;;18.30;11.70;;;4.80;68.40;;;;;;5015430;28;20030;-58
2021/01/09 05:36:18;;;;;;;19.52;12.10;;;4.80;68.30;;;;;;5014153;28;20021;-59
2021/01/09 05:38:46;;;;;;;18.30;13.13;;;4.80;68.00;;;;;;5012959;28;20026;-56
2021/01/09 05:41:23;;;;;;;19.88;12.23;;;4.70;67.90;;;;;;5012734;28;20049;-58
2021/01/09 05:43:58;;;;;;;18.35;11.88;;;4.70;68.10;;;;;;5011707;28;20220;-60
2021/01/09 05:46:25;;;;;;;18.15;11.95;;;4.70;68.30;;;;;;5006783;28;20026;-58
2021/01/09 05:48:52;;;;;;;18.58;13.13;;;4.70;68.40;;;;;;5014714;28;20026;-58
2021/01/09 05:51:19;;;;;;;21.42;13.27;;;4.70;68.60;;;;;;5013973;28;20522;-59
2021/01/09 05:53:46;;;;;;;21.77;14.07;;;4.70;68.60;;;;;;5014641;28;20034;-60
2021/01/09 05:56:14;;;;;;;21.33;13.65;;;4.80;68.80;;;;;;5009848;28;20075;-59
2021/01/09 05:58:40;;;;;;;19.85;13.70;;;4.80;68.70;;;;;;5013577;28;20057;-59
2021/01/09 06:01:08;;;;;;;18.48;12.48;;;4.80;68.60;;;;;;5012820;28;20017;-59
2021/01/09 06:03:37;;;;;;;17.65;11.93;;;4.80;68.40;;;;;;5014174;28;20018;-59
2021/01/09 06:06:12;;;;;;;20.95;13.48;;;4.90;68.50;;;;;;5014262;28;20030;-59
2021/01/09 06:08:45;;;;;;;17.65;12.27;;;4.80;68.30;;;;;;5016698;28;20033;-58
2021/01/09 06:11:17;;;;;;;17.42;12.05;;;4.80;68.60;;;;;;5003888;28;20034;-59
2021/01/09 06:13:47;;;;;;;20.35;12.45;;;4.80;68.60;;;;;;5016625;28;20045;-58
2021/01/09 06:16:15;;;;;;;16.10;11.35;;;4.80;68.60;;;;;;5012369;28;20033;-59
2021/01/09 06:18:41;;;;;;;19.27;11.80;;;4.80;68.50;;;;;;5017645;28;20018;-59
2021/01/09 06:21:10;;;;;;;20.95;13.13;;;4.80;68.50;;;;;;5016917;28;20032;-59
2021/01/09 06:23:36;;;;;;;18.73;12.88;;;4.70;68.50;;;;;;5017303;28;20084;-58
2021/01/09 06:26:02;;;;;;;22.10;13.90;;;4.70;68.90;;;;;;5017813;28;20038;-59
2021/01/09 06:28:36;;;;;;;22.33;12.93;;;4.70;69.00;;;;;;5017452;28;20400;-60
2021/01/09 06:31:02;;;;;;;20.38;14.07;;;4.80;69.20;;;;;;5017059;28;20052;-59
2021/01/09 06:33:29;;;;;;;22.13;14.25;;;4.80;69.10;;;;;;5016792;28;20144;-60
2021/01/09 06:35:58;;;;;;;20.65;12.85;;;4.80;68.90;;;;;;5017042;28;20113;-59
2021/01/09 06:38:25;;;;;;;19.13;12.70;;;4.80;69.00;;;;;;5017427;28;20022;-59
2021/01/09 06:40:51;;;;;;;18.38;13.15;;;4.80;68.90;;;;;;5012181;28;20037;-60
2021/01/09 06:43:17;;;;;;;20.80;13.60;;;4.80;68.80;;;;;;5012238;28;20033;-60
2021/01/09 06:45:43;;;;;;;22.63;13.77;;;4.70;68.80;;;;;;5016032;28;20478;-58
2021/01/09 06:48:11;;;;;;;20.17;13.57;;;4.70;69.10;;;;;;5017379;28;20064;-59
2021/01/09 06:50:37;;;;;;;22.42;13.02;;;4.60;69.10;;;;;;5016453;28;20080;-59
2021/01/09 06:53:04;;;;;;;23.85;14.88;;;4.60;69.20;;;;;;5017247;28;20063;-59
2021/01/09 06:55:35;;;;;;;24.67;15.70;;;4.60;69.40;;;;;;5016774;28;20030;-60
2021/01/09 06:58:01;;;;;;;;;;;4.60;69.60;;;;;;5016573;28;20026;-58
2021/01/09 07:00:27;;;;;;;23.10;13.38;;;4.60;69.50;;;;;;5016762;28;19952;-59
2021/01/09 07:03:12;;;;;;;22.40;13.80;;;4.60;69.90;;;;;;5016838;28;20026;-60
2021/01/09 07:05:49;;;;;;;20.55;13.75;;;4.70;69.80;;;;;;5016421;28;20065;-60
2021/01/09 07:08:29;;;;;;;23.35;15.57;;;4.70;69.70;;;;;;5013323;28;20392;-60
2021/01/09 07:10:59;;;;;;;20.00;13.70;;;4.70;69.70;;;;;;5016466;28;20544;-58
2021/01/09 07:13:26;;;;;;;19.83;13.13;;;4.70;69.80;;;;;;5017034;28;20032;-59
2021/01/09 07:16:06;;;;;;;22.67;14.50;;;4.70;69.80;;;;;;5015209;28;20048;-60
2021/01/09 07:18:37;;;;;;;21.10;12.63;;;4.70;69.90;;;;;;5010892;28;20030;-59
2021/01/09 07:21:05;;;;;;;23.08;14.80;;;4.70;69.80;;;;;;5015996;28;20021;-59
2021/01/09 07:23:33;;;;;;;21.10;13.45;;;4.70;69.90;;;;;;5016335;28;20024;-58
2021/01/09 07:26:02;;;;;;;22.23;14.27;;;4.70;70.10;;;;;;5016358;28;20013;-59
2021/01/09 07:28:33;;;;;;;25.15;15.65;;;4.70;70.10;;;;;;5014413;28;20053;-58
2021/01/09 07:31:03;;;;;;;24.08;14.73;;;4.70;70.20;;;;;;5015867;28;20481;-59
2021/01/09 07:33:32;;;;;;;23.88;14.63;;;4.80;70.10;;;;;;5016384;28;20054;-57
2021/01/09 07:35:58;;;;;;;24.98;15.18;;;4.70;69.80;;;;;;5016396;28;20536;-58
2021/01/09 07:38:24;;;;;;;21.73;15.15;;;4.70;69.90;;;;;;5015053;28;20022;-59
2021/01/09 07:40:58;;;;;;;22.35;14.07;;;4.60;70.00;;;;;;5016573;28;20429;-58
2021/01/09 07:43:41;;;;;;;20.88;14.00;;;4.60;70.20;;;;;;5015868;28;20025;-60
2021/01/09 07:46:27;;;;;;;21.80;14.63;;;4.60;70.30;;;;;;5014629;28;20088;-59
2021/01/09 07:48:54;;;;;;;23.35;14.45;;;4.60;70.30;;;;;;5016406;28;20084;-58
2021/01/09 07:51:40;;;;;;;21.73;14.30;;;4.50;70.30;;;;;;5016428;28;20077;-58
2021/01/09 07:54:06;;;;;;;25.05;15.70;;;4.50;70.50;;;;;;5014980;28;20106;-60
2021/01/09 07:56:39;;;;;;;23.17;14.43;;;4.50;70.60;;;;;;5015602;28;20034;-60
2021/01/09 07:59:05;;;;;;;23.73;15.25;;;4.50;70.80;;;;;;5015387;28;20041;-59
2021/01/09 08:01:43;;;;;;;23.55;15.13;;;4.50;71.00;;;;;;5015282;28;20076;-59
2021/01/09 08:04:12;;;;;;;24.20;15.13;;;4.50;71.10;;;;;;5012998;28;20026;-58
2021/01/09 08:06:41;;;;;;;25.33;15.10;;;4.50;71.40;;;;;;5015438;28;20641;-59
2021/01/09 08:09:08;;;;;;;22.35;15.48;;;4.60;71.20;;;;;;5015447;28;20033;-59
2021/01/09 08:11:41;;;;;;;25.55;14.73;;;4.60;71.20;;;;;;5015218;28;20022;-59
2021/01/09 08:14:07;;;;;;;21.90;13.70;;;4.70;71.10;;;;;;5014735;28;20420;-59
2021/01/09 08:16:33;;;;;;;22.52;15.00;;;4.60;71.00;;;;;;5008768;28;20033;-60
2021/01/09 08:19:18;;;;;;;28.80;15.85;;;4.60;71.00;;;;;;5015277;28;20466;-60
2021/01/09 08:21:47;;;;;;;24.67;16.00;;;4.70;71.10;;;;;;5015106;28;20018;-60
2021/01/09 08:24:23;;;;;;;24.80;16.40;;;4.70;71.10;;;;;;5014180;28;20029;-60
2021/01/09 08:26:53;;;;;;;24.80;15.25;;;4.70;71.10;;;;;;5015425;28;20069;-60
2021/01/09 08:29:27;;;;;;;23.83;15.55;;;4.70;71.20;;;;;;5014981;28;20046;-60
2021/01/09 08:31:54;;;;;;;24.67;14.63;;;4.80;71.30;;;;;;5012940;28;20483;-60
2021/01/09 08:34:21;;;;;;;24.13;15.27;;;4.80;71.40;;;;;;5012672;28;20418;-58
2021/01/09 08:36:49;;;;;;;26.13;16.17;;;4.80;71.10;;;;;;5015049;28;20068;-59
2021/01/09 08:39:15;;;;;;;27.52;17.02;;;4.90;71.20;;;;;;5014643;28;20072;-60
2021/01/09 08:41:42;;;;;;;26.80;17.30;;;4.90;71.30;;;;;;5015103;28;20378;-60
2021/01/09 08:44:09;;;;;;;27.75;16.73;;;4.90;71.30;;;;;;5015214;28;20022;-61
2021/01/09 08:46:36;;;;;;;26.33;18.25;;;5.00;71.20;;;;;;5015285;28;20026;-59
2021/01/09 08:49:03;;;;;;;30.45;15.88;;;5.10;71.40;;;;;;5015232;28;20042;-59
2021/01/09 08:51:31;;;;;;;25.02;17.10;;;5.20;71.20;;;;;;5015281;28;20057;-59
2021/01/09 08:54:01;;;;;;;27.30;17.38;;;5.20;71.30;;;;;;5012714;28;20044;-58
2021/01/09 08:56:28;;;;;;;23.70;15.35;;;5.20;70.90;;;;;;5013056;28;20334;-60
2021/01/09 08:58:55;;;;;;;24.95;16.15;;;5.30;71.30;;;;;;5014793;28;20390;-59
2021/01/09 09:01:35;;;;;;;24.15;15.43;;;5.40;71.00;;;;;;5000321;28;20101;-59
2021/01/09 09:04:04;;;;;;;20.38;13.55;;;5.50;70.60;;;;;;5008851;28;20024;-59
2021/01/09 09:06:34;;;;;;;25.67;15.30;;;5.50;70.40;;;;;;5007130;28;20528;-58
2021/01/09 09:09:00;;;;;;;24.15;15.55;;;5.50;70.10;;;;;;5014580;28;20042;-60
2021/01/09 09:11:26;;;;;;;24.73;15.43;;;5.50;70.20;;;;;;5013621;28;20457;-58
2021/01/09 09:14:09;;;;;;;28.90;15.90;;;5.50;70.40;;;;;;5013436;28;20044;-59
2021/01/09 09:16:36;;;;;;;23.35;15.43;;;5.50;70.30;;;;;;5014184;28;20532;-60
2021/01/09 09:19:13;;;;;;;25.35;15.40;;;5.60;70.60;;;;;;5006942;28;20038;-58
2021/01/09 09:21:45;;;;;;;22.35;14.68;;;5.60;70.40;;;;;;5003151;28;20025;-59
2021/01/09 09:24:12;;;;;;;23.67;14.65;;;5.70;70.30;;;;;;5011522;28;20056;-60
2021/01/09 09:26:38;;;;;;;23.52;14.73;;;5.70;70.10;;;;;;5011733;28;20355;-60
2021/01/09 09:29:04;;;;;;;23.30;14.80;;;5.70;69.90;;;;;;5014541;28;20049;-59
2021/01/09 09:31:34;;;;;;;22.13;13.45;;;5.80;70.00;;;;;;5007832;28;20026;-62
2021/01/09 09:34:12;;;;;;;23.13;14.30;;;5.80;69.80;;;;;;5017072;28;20085;-59
2021/01/09 09:36:50;;;;;;;24.13;14.60;;;5.80;69.40;;;;;;5013396;28;20036;-59
2021/01/09 09:39:21;;;;;;;19.42;12.73;;;5.70;69.00;;;;;;5015084;28;20049;-61
2021/01/09 09:41:53;;;;;;;22.92;14.30;;;5.60;68.80;;;;;;5012871;28;20044;-59
2021/01/09 09:44:40;;;;;;;24.05;14.52;;;5.60;69.30;;;;;;5018804;28;20057;-60
2021/01/09 09:47:10;;;;;;;21.90;14.18;;;5.50;69.70;;;;;;5017374;28;20037;-60
2021/01/09 09:49:38;;;;;;;19.88;14.02;;;5.50;69.60;;;;;;5016982;28;20037;-60
2021/01/09 09:52:17;;;;;;;20.63;13.80;;;5.50;69.50;;;;;;5015790;28;20049;-60
2021/01/09 09:54:43;;;;;;;19.65;14.05;;;5.50;69.20;;;;;;5017987;28;20030;-58
2021/01/09 09:57:19;;;;;;;22.00;14.35;;;5.40;69.50;;;;;;5017503;28;20033;-59
2021/01/09 09:59:44;;;;;;;22.00;14.27;;;5.40;70.00;;;;;;5017957;28;20077;-60
2021/01/09 10:02:10;;;;;;;22.35;13.98;;;5.40;70.10;;;;;;5016766;28;20033;-60
2021/01/09 10:04:44;;;;;;;23.42;13.75;;;5.50;70.20;;;;;;5010031;28;20018;-58
2021/01/09 10:07:25;;;;;;;21.48;13.73;;;5.50;69.80;;;;;;5008384;28;20042;-59
2021/01/09 10:09:52;;;;;;;22.67;14.75;;;5.50;69.70;;;;;;5007619;28;20061;-59
2021/01/09 10:12:18;;;;;;;22.02;14.55;;;5.50;69.40;;;;;;5019282;28;20030;-58
2021/01/09 10:14:44;;;;;;;20.10;13.88;;;5.40;69.30;;;;;;5010342;28;20454;-58
2021/01/09 10:17:16;;;;;;;17.67;12.55;;;5.40;69.40;;;;;;5013748;28;20022;-58
2021/01/09 10:19:43;;;;;;;19.80;13.57;;;5.40;69.50;;;;;;5004880;28;20022;-59
2021/01/09 10:22:09;;;;;;;24.17;14.70;;;5.30;69.70;;;;;;5014189;28;20026;-60
2021/01/09 10:24:35;;;;;;;21.65;14.45;;;5.40;69.60;;;;;;5004022;28;20417;-59
2021/01/09 10:27:02;;;;;;;21.35;14.70;;;5.40;69.50;;;;;;5018173;28;20029;-60
2021/01/09 10:29:28;;;;;;;21.77;13.27;;;5.30;69.80;;;;;;5010890;28;20123;-60
2021/01/09 10:31:53;;;;;;;22.20;14.27;;;5.40;69.90;;;;;;5017424;28;20485;-59
2021/01/09 10:34:19;;;;;;;21.55;14.10;;;5.40;69.80;;;;;;5016020;28;20026;-59
2021/01/09 10:36:45;;;;;;;22.20;15.07;;;5.40;69.50;;;;;;5014206;28;20030;-61
2021/01/09 10:39:10;;;;;;;23.30;15.40;;;5.40;69.60;;;;;;5010187;28;20042;-60
2021/01/09 10:41:36;;;;;;;23.35;14.90;;;5.40;69.80;;;;;;5014001;28;20085;-59
2021/01/09 10:44:03;;;;;;;21.90;14.20;;;5.50;69.80;;;;;;5015876;28;20088;-57
2021/01/09 10:46:29;;;;;;;24.88;15.27;;;5.50;69.80;;;;;;5018132;28;20026;-59
2021/01/09 10:48:56;;;;;;;25.48;15.45;;;5.50;69.70;;;;;;5008689;28;20033;-57
2021/01/09 10:51:22;;;;;;;22.75;15.05;;;5.50;69.70;;;;;;5015857;28;20038;-59
2021/01/09 10:53:49;;;;;;;22.17;14.50;;;5.50;69.70;;;;;;5002427;28;20521;-59
2021/01/09 10:56:15;;;;;;;20.48;14.25;;;5.50;69.90;;;;;;5015521;28;20381;-60
2021/01/09 10:58:41;;;;;;;19.17;13.50;;;5.50;69.80;;;;;;5014800;28;20083;-60
2021/01/09 11:01:08;;;;;;;22.23;14.50;;;5.50;69.80;;;;;;5010628;28;20018;-60
2021/01/09 11:03:35;;;;;;;22.17;13.63;;;5.50;69.60;;;;;;5015450;28;20180;-59
2021/01/09 11:06:01;;;;;;;18.30;12.90;;;5.50;69.70;;;;;;5014756;28;20038;-61
2021/01/09 11:08:27;;;;;;;23.67;15.23;;;5.60;69.70;;;;;;5013655;28;20097;-58
2021/01/09 11:10:55;;;;;;;21.02;13.52;;;5.60;69.80;;;;;;5011213;28;20034;-60
2021/01/09 11:13:21;;;;;;;21.75;15.18;;;5.60;69.70;;;;;;5016115;28;20108;-60
2021/01/09 11:15:49;;;;;;;20.70;13.43;;;5.60;69.60;;;;;;5013897;28;20080;-59
2021/01/09 11:18:15;;;;;;;23.58;15.05;;;5.60;69.60;;;;;;5016066;28;20018;-60
2021/01/09 11:20:51;;;;;;;22.75;14.77;;;5.60;69.50;;;;;;5016837;28;20378;-59
2021/01/09 11:23:19;;;;;;;25.77;16.33;;;5.60;69.40;;;;;;5015353;28;20032;-60
2021/01/09 11:25:46;;;;;;;23.15;14.63;;;5.60;69.60;;;;;;5009453;28;20072;-59
2021/01/09 11:28:12;;;;;;;25.05;14.82;;;5.60;69.60;;;;;;5010851;28;20085;-59
2021/01/09 11:30:39;;;;;;;25.63;16.85;;;5.60;69.50;;;;;;5006934;28;20029;-60
2021/01/09 11:33:05;;;;;;;25.52;16.35;;;5.60;69.30;;;;;;5008617;28;20034;-59
2021/01/09 11:35:31;;;;;;;23.10;14.38;;;5.60;69.30;;;;;;5010630;28;20080;-59
2021/01/09 11:37:58;;;;;;;23.52;14.07;;;5.60;69.20;;;;;;5011227;28;20030;-58
2021/01/09 11:40:24;;;;;;;21.83;13.95;;;5.60;69.10;;;;;;5007767;28;20101;-59
2021/01/09 11:42:50;;;;;;;19.08;12.77;;;5.50;68.90;;;;;;5016239;28;20068;-59
2021/01/09 11:45:16;;;;;;;23.00;13.32;;;5.50;68.80;;;;;;5008597;28;20470;-59
2021/01/09 11:47:42;;;;;;;23.52;14.38;;;5.50;69.10;;;;;;5014877;28;20034;-60
2021/01/09 11:50:09;;;;;;;23.80;13.82;;;5.50;68.90;;;;;;5015485;28;20033;-59
2021/01/09 11:52:35;;;;;;;21.90;13.18;;;5.50;68.90;;;;;;5015358;28;20026;-60
2021/01/09 11:55:00;;;;;;;21.83;15.05;;;5.40;68.90;;;;;;5014248;28;20052;-60
2021/01/09 11:57:26;;;;;;;20.98;13.40;;;5.40;69.20;;;;;;5015044;28;20030;-60
2021/01/09 11:59:52;;;;;;;21.20;13.48;;;5.50;69.50;;;;;;5013441;28;20033;-60
2021/01/09 12:02:18;;;;;;;21.25;13.93;;;5.50;69.20;;;;;;5013165;28;20481;-60
2021/01/09 12:04:43;;;;;;;21.15;13.57;;;5.60;69.30;;;;;;5011581;28;20053;-62
2021/01/09 12:07:09;;;;;;;21.10;13.23;;;5.60;69.00;;;;;;5011977;28;20029;-58
2021/01/09 12:09:35;;;;;;;20.63;13.25;;;5.60;68.70;;;;;;5007609;28;20038;-61
2021/01/09 12:12:00;;;;;;;19.83;13.07;;;5.60;68.80;;;;;;5013806;28;20037;-60
2021/01/09 12:14:26;;;;;;;21.48;13.90;;;5.50;68.50;;;;;;5012839;28;20026;-61
2021/01/09 12:16:52;;;;;;;21.90;13.90;;;5.60;68.90;;;;;;5008812;28;20034;-61
2021/01/09 12:19:17;;;;;;;21.05;14.13;;;5.50;68.90;;;;;;5013363;28;20109;-60
2021/01/09 12:21:43;;;;;;;17.63;12.82;;;5.60;68.70;;;;;;5013556;28;20029;-59
2021/01/09 12:24:09;;;;;;;21.77;14.32;;;5.60;68.20;;;;;;5013194;28;20029;-60
2021/01/09 12:26:35;;;;;;;24.27;15.13;;;5.50;68.40;;;;;;5012147;28;20068;-60
2021/01/09 12:29:01;;;;;;;22.70;13.25;;;5.50;68.20;;;;;;5015815;28;20042;-58
2021/01/09 12:31:34;;;;;;;20.08;13.52;;;5.50;68.50;;;;;;5010407;28;20050;-59
2021/01/09 12:34:03;;;;;;;23.30;15.00;;;5.40;68.60;;;;;;5002848;28;20080;-59
2021/01/09 12:36:30;;;;;;;22.17;13.73;;;5.40;68.70;;;;;;5008469;28;20034;-59
2021/01/09 12:38:56;;;;;;;22.13;14.13;;;5.40;68.90;;;;;;5013706;28;20099;-60
2021/01/09 12:41:34;;;;;;;21.88;13.70;;;5.40;68.80;;;;;;5012048;28;20037;-60